sensor_id;sensor_type;location;lat;lon;timestamp;temperature;humidity
39345;DHT22;25061;51.954;6.996;2023-02-28T00:00:07;-1.00;99.90
39345;DHT22;25061;51.954;6.996;2023-02-28T00:02:39;-1.00;99.90
39345;DHT22;25061;51.954;6.996;2023-02-28T00:05:06;-1.00;99.90
39345;DHT22;25061;51.954;6.996;2023-02-28T00:07:32;-1.10;99.90
39345;DHT22;25061;51.954;6.996;2023-02-28T00:09:58;-1.00;99.90
39345;DHT22;25061;51.954;6.996;2023-02-28T00:12:23;-1.00;99.90
39345;DHT22;25061;51.954;6.996;2023-02-28T00:14:49;-1.10;99.90
39345;DHT22;25061;51.954;6.996;2023-02-28T00:17:15;-1.20;99.90
39345;DHT22;25061;51.954;6.996;2023-02-28T00:19:50;-1.20;99.90
39345;DHT22;25061;51.954;6.996;2023-02-28T00:22:18;-1.10;99.90
39345;DHT22;25061;51.954;6.996;2023-02-28T00:24:44;-1.00;99.90
39345;DHT22;25061;51.954;6.996;2023-02-28T00:27:10;-1.00;99.90
39345;DHT22;25061;51.954;6.996;2023-02-28T00:29:37;-1.00;99.90
39345;DHT22;25061;51.954;6.996;2023-02-28T00:32:03;-0.90;99.90
39345;DHT22;25061;51.954;6.996;2023-02-28T00:34:29;-0.80;99.90
39345;DHT22;25061;51.954;6.996;2023-02-28T00:36:54;-0.80;99.90
39345;DHT22;25061;51.954;6.996;2023-02-28T00:39:20;-0.80;99.90
39345;DHT22;25061;51.954;6.996;2023-02-28T00:41:46;-0.70;99.90
39345;DHT22;25061;51.954;6.996;2023-02-28T00:44:12;-0.70;99.90
39345;DHT22;25061;51.954;6.996;2023-02-28T00:46:37;-0.70;99.90
39345;DHT22;25061;51.954;6.996;2023-02-28T00:49:03;-0.60;99.90
39345;DHT22;25061;51.954;6.996;2023-02-28T00:51:28;-0.70;99.90
39345;DHT22;25061;51.954;6.996;2023-02-28T00:53:54;-0.70;99.90
39345;DHT22;25061;51.954;6.996;2023-02-28T00:56:20;-0.60;99.90
39345;DHT22;25061;51.954;6.996;2023-02-28T00:58:45;-0.70;99.90
39345;DHT22;25061;51.954;6.996;2023-02-28T01:01:11;-0.70;99.90
39345;DHT22;25061;51.954;6.996;2023-02-28T01:03:36;-0.60;99.90
39345;DHT22;25061;51.954;6.996;2023-02-28T01:06:03;-0.60;99.90
39345;DHT22;25061;51.954;6.996;2023-02-28T01:08:29;-0.60;99.90
39345;DHT22;25061;51.954;6.996;2023-02-28T01:10:54;-0.60;99.90
39345;DHT22;25061;51.954;6.996;2023-02-28T01:13:20;-0.60;99.90
39345;DHT22;25061;51.954;6.996;2023-02-28T01:15:54;-0.60;99.90
39345;DHT22;25061;51.954;6.996;2023-02-28T01:18:21;-0.60;99.90
39345;DHT22;25061;51.954;6.996;2023-02-28T01:20:47;-0.70;99.90
39345;DHT22;25061;51.954;6.996;2023-02-28T01:23:13;-0.70;99.90
39345;DHT22;25061;51.954;6.996;2023-02-28T01:25:39;-0.70;99.90
39345;DHT22;25061;51.954;6.996;2023-02-28T01:28:05;-0.60;99.90
39345;DHT22;25061;51.954;6.996;2023-02-28T01:30:31;-0.60;99.90
39345;DHT22;25061;51.954;6.996;2023-02-28T01:32:58;-0.70;99.90
39345;DHT22;25061;51.954;6.996;2023-02-28T01:35:23;-0.70;99.90
39345;DHT22;25061;51.954;6.996;2023-02-28T01:37:49;-0.70;99.90
39345;DHT22;25061;51.954;6.996;2023-02-28T01:40:14;-0.70;99.90
39345;DHT22;25061;51.954;6.996;2023-02-28T01:42:40;-0.70;99.90
39345;DHT22;25061;51.954;6.996;2023-02-28T01:45:27;-0.70;99.90
39345;DHT22;25061;51.954;6.996;2023-02-28T01:48:05;-0.70;99.90
39345;DHT22;25061;51.954;6.996;2023-02-28T01:50:37;-0.70;99.90
39345;DHT22;25061;51.954;6.996;2023-02-28T01:53:07;-0.60;99.90
39345;DHT22;25061;51.954;6.996;2023-02-28T01:55:34;-0.60;99.90
39345;DHT22;25061;51.954;6.996;2023-02-28T01:58:02;-0.60;99.90
39345;DHT22;25061;51.954;6.996;2023-02-28T02:00:30;-0.50;99.90
39345;DHT22;25061;51.954;6.996;2023-02-28T02:02:59;-0.50;99.90
39345;DHT22;25061;51.954;6.996;2023-02-28T02:05:28;-0.50;99.90
39345;DHT22;25061;51.954;6.996;2023-02-28T02:08:00;-0.50;99.90
39345;DHT22;25061;51.954;6.996;2023-02-28T02:10:33;-0.50;99.90
39345;DHT22;25061;51.954;6.996;2023-02-28T02:16:33;-0.50;99.90
39345;DHT22;25061;51.954;6.996;2023-02-28T02:24:58;-0.50;99.90
39345;DHT22;25061;51.954;6.996;2023-02-28T02:27:57;-0.40;99.90
39345;DHT22;25061;51.954;6.996;2023-02-28T02:30:44;-0.60;99.90
39345;DHT22;25061;51.954;6.996;2023-02-28T02:36:35;-0.50;99.90
39345;DHT22;25061;51.954;6.996;2023-02-28T02:39:16;-0.50;99.90
39345;DHT22;25061;51.954;6.996;2023-02-28T02:41:54;-0.50;99.90
39345;DHT22;25061;51.954;6.996;2023-02-28T02:44:41;-0.60;99.90
39345;DHT22;25061;51.954;6.996;2023-02-28T02:47:12;-0.60;99.90
39345;DHT22;25061;51.954;6.996;2023-02-28T02:49:44;-0.50;99.90
39345;DHT22;25061;51.954;6.996;2023-02-28T02:52:13;-0.60;99.90
39345;DHT22;25061;51.954;6.996;2023-02-28T02:54:45;-0.60;99.90
39345;DHT22;25061;51.954;6.996;2023-02-28T02:57:17;-0.70;99.90
39345;DHT22;25061;51.954;6.996;2023-02-28T02:59:45;-0.70;99.90
39345;DHT22;25061;51.954;6.996;2023-02-28T03:02:13;-0.80;99.90
39345;DHT22;25061;51.954;6.996;2023-02-28T03:04:46;-0.80;99.90
39345;DHT22;25061;51.954;6.996;2023-02-28T03:07:13;-0.80;99.90
39345;DHT22;25061;51.954;6.996;2023-02-28T03:09:39;-0.80;99.90
39345;DHT22;25061;51.954;6.996;2023-02-28T03:12:09;-0.80;99.90
39345;DHT22;25061;51.954;6.996;2023-02-28T03:15:11;-0.80;99.90
39345;DHT22;25061;51.954;6.996;2023-02-28T03:17:56;-1.10;99.90
39345;DHT22;25061;51.954;6.996;2023-02-28T03:20:36;-1.20;99.90
39345;DHT22;25061;51.954;6.996;2023-02-28T03:25:46;-1.10;99.90
39345;DHT22;25061;51.954;6.996;2023-02-28T03:31:15;-1.20;99.90
39345;DHT22;25061;51.954;6.996;2023-02-28T03:33:54;-1.30;99.90
39345;DHT22;25061;51.954;6.996;2023-02-28T03:36:25;-1.50;99.90
39345;DHT22;25061;51.954;6.996;2023-02-28T03:38:58;-1.40;99.90
39345;DHT22;25061;51.954;6.996;2023-02-28T03:41:58;-1.40;99.90
39345;DHT22;25061;51.954;6.996;2023-02-28T03:44:32;-1.40;99.90
39345;DHT22;25061;51.954;6.996;2023-02-28T03:47:10;-1.60;99.90
39345;DHT22;25061;51.954;6.996;2023-02-28T03:49:46;-1.60;99.90
39345;DHT22;25061;51.954;6.996;2023-02-28T03:52:14;-1.50;99.90
39345;DHT22;25061;51.954;6.996;2023-02-28T03:54:47;-1.60;99.90
39345;DHT22;25061;51.954;6.996;2023-02-28T03:57:51;-1.70;99.90
39345;DHT22;25061;51.954;6.996;2023-02-28T04:00:21;-1.50;99.90
39345;DHT22;25061;51.954;6.996;2023-02-28T04:02:54;-1.50;99.90
39345;DHT22;25061;51.954;6.996;2023-02-28T04:05:21;-1.50;99.90
39345;DHT22;25061;51.954;6.996;2023-02-28T04:07:46;-1.40;99.90
39345;DHT22;25061;51.954;6.996;2023-02-28T04:10:13;-1.40;99.90
39345;DHT22;25061;51.954;6.996;2023-02-28T04:12:38;-1.60;99.90
39345;DHT22;25061;51.954;6.996;2023-02-28T04:15:04;-1.60;99.90
39345;DHT22;25061;51.954;6.996;2023-02-28T04:17:30;-1.60;99.90
39345;DHT22;25061;51.954;6.996;2023-02-28T04:19:56;-1.60;99.90
39345;DHT22;25061;51.954;6.996;2023-02-28T04:22:22;-1.60;99.90
39345;DHT22;25061;51.954;6.996;2023-02-28T04:24:51;-1.70;99.90
39345;DHT22;25061;51.954;6.996;2023-02-28T04:27:16;-1.60;99.90
39345;DHT22;25061;51.954;6.996;2023-02-28T04:29:42;-1.60;99.90
39345;DHT22;25061;51.954;6.996;2023-02-28T04:32:10;-1.80;99.90
39345;DHT22;25061;51.954;6.996;2023-02-28T04:34:36;-1.80;99.90
39345;DHT22;25061;51.954;6.996;2023-02-28T04:37:01;-1.90;99.90
39345;DHT22;25061;51.954;6.996;2023-02-28T04:39:28;-1.90;99.90
39345;DHT22;25061;51.954;6.996;2023-02-28T04:41:54;-1.90;99.90
39345;DHT22;25061;51.954;6.996;2023-02-28T04:44:20;-1.90;99.90
39345;DHT22;25061;51.954;6.996;2023-02-28T04:46:47;-2.00;99.90
39345;DHT22;25061;51.954;6.996;2023-02-28T04:49:13;-1.90;99.90
39345;DHT22;25061;51.954;6.996;2023-02-28T04:51:39;-1.90;99.90
39345;DHT22;25061;51.954;6.996;2023-02-28T04:54:05;-1.90;99.90
39345;DHT22;25061;51.954;6.996;2023-02-28T04:56:30;-1.90;99.90
39345;DHT22;25061;51.954;6.996;2023-02-28T04:58:56;-2.00;99.90
39345;DHT22;25061;51.954;6.996;2023-02-28T05:01:27;-2.00;99.90
39345;DHT22;25061;51.954;6.996;2023-02-28T05:03:54;-2.10;99.90
39345;DHT22;25061;51.954;6.996;2023-02-28T05:06:22;-2.00;99.90
39345;DHT22;25061;51.954;6.996;2023-02-28T05:08:49;-2.10;99.90
39345;DHT22;25061;51.954;6.996;2023-02-28T05:11:22;-2.10;99.90
39345;DHT22;25061;51.954;6.996;2023-02-28T05:13:49;-2.10;99.90
39345;DHT22;25061;51.954;6.996;2023-02-28T05:16:16;-2.00;99.90
39345;DHT22;25061;51.954;6.996;2023-02-28T05:18:41;-2.10;99.90
39345;DHT22;25061;51.954;6.996;2023-02-28T05:23:49;-2.30;99.90
39345;DHT22;25061;51.954;6.996;2023-02-28T05:26:14;-2.30;99.90
39345;DHT22;25061;51.954;6.996;2023-02-28T05:28:40;-2.30;99.90
39345;DHT22;25061;51.954;6.996;2023-02-28T05:31:05;-2.30;99.90
39345;DHT22;25061;51.954;6.996;2023-02-28T05:33:31;-2.30;99.90
39345;DHT22;25061;51.954;6.996;2023-02-28T05:35:56;-2.30;99.90
39345;DHT22;25061;51.954;6.996;2023-02-28T05:38:22;-2.30;99.90
39345;DHT22;25061;51.954;6.996;2023-02-28T05:40:47;-2.40;99.90
39345;DHT22;25061;51.954;6.996;2023-02-28T05:43:13;-2.40;99.90
39345;DHT22;25061;51.954;6.996;2023-02-28T05:45:38;-2.40;99.90
39345;DHT22;25061;51.954;6.996;2023-02-28T05:48:04;-2.40;99.90
39345;DHT22;25061;51.954;6.996;2023-02-28T05:50:30;-2.50;99.90
39345;DHT22;25061;51.954;6.996;2023-02-28T05:52:55;-2.40;99.90
39345;DHT22;25061;51.954;6.996;2023-02-28T05:55:21;-2.40;99.90
39345;DHT22;25061;51.954;6.996;2023-02-28T05:57:46;-2.40;99.90
39345;DHT22;25061;51.954;6.996;2023-02-28T06:00:12;-2.40;99.90
39345;DHT22;25061;51.954;6.996;2023-02-28T06:02:40;-2.40;99.90
39345;DHT22;25061;51.954;6.996;2023-02-28T06:05:16;-2.50;99.90
39345;DHT22;25061;51.954;6.996;2023-02-28T06:07:42;-2.60;99.90
39345;DHT22;25061;51.954;6.996;2023-02-28T06:10:10;-2.60;99.90
39345;DHT22;25061;51.954;6.996;2023-02-28T06:12:36;-2.60;99.90
39345;DHT22;25061;51.954;6.996;2023-02-28T06:15:02;-2.60;99.90
39345;DHT22;25061;51.954;6.996;2023-02-28T06:17:28;-2.60;99.90
39345;DHT22;25061;51.954;6.996;2023-02-28T06:19:53;-2.60;99.90
39345;DHT22;25061;51.954;6.996;2023-02-28T06:22:19;-2.50;99.90
39345;DHT22;25061;51.954;6.996;2023-02-28T06:24:44;-2.50;99.90
39345;DHT22;25061;51.954;6.996;2023-02-28T06:27:10;-2.50;99.90
39345;DHT22;25061;51.954;6.996;2023-02-28T06:29:36;-2.60;99.90
39345;DHT22;25061;51.954;6.996;2023-02-28T06:32:05;-2.60;99.90
39345;DHT22;25061;51.954;6.996;2023-02-28T06:34:30;-2.70;99.90
39345;DHT22;25061;51.954;6.996;2023-02-28T06:36:56;-2.80;99.90
39345;DHT22;25061;51.954;6.996;2023-02-28T06:39:22;-2.70;99.90
39345;DHT22;25061;51.954;6.996;2023-02-28T06:41:47;-2.70;99.90
39345;DHT22;25061;51.954;6.996;2023-02-28T06:44:15;-2.60;99.90
39345;DHT22;25061;51.954;6.996;2023-02-28T06:46:41;-2.50;99.90
39345;DHT22;25061;51.954;6.996;2023-02-28T06:49:07;-2.30;99.90
39345;DHT22;25061;51.954;6.996;2023-02-28T06:51:38;-1.80;99.90
39345;DHT22;25061;51.954;6.996;2023-02-28T06:54:04;-1.50;99.90
39345;DHT22;25061;51.954;6.996;2023-02-28T06:56:30;-1.40;99.90
39345;DHT22;25061;51.954;6.996;2023-02-28T06:58:56;-1.30;99.90
39345;DHT22;25061;51.954;6.996;2023-02-28T07:01:22;-1.00;99.90
39345;DHT22;25061;51.954;6.996;2023-02-28T07:03:49;-0.80;99.90
39345;DHT22;25061;51.954;6.996;2023-02-28T07:06:18;-0.90;99.90
39345;DHT22;25061;51.954;6.996;2023-02-28T07:08:43;-1.00;99.90
39345;DHT22;25061;51.954;6.996;2023-02-28T07:11:09;-1.00;99.90
39345;DHT22;25061;51.954;6.996;2023-02-28T07:13:35;-0.80;99.90
39345;DHT22;25061;51.954;6.996;2023-02-28T07:16:03;-0.80;99.90
39345;DHT22;25061;51.954;6.996;2023-02-28T07:18:30;-0.90;99.90
39345;DHT22;25061;51.954;6.996;2023-02-28T07:20:56;-0.70;99.90
39345;DHT22;25061;51.954;6.996;2023-02-28T07:23:21;-0.70;99.90
39345;DHT22;25061;51.954;6.996;2023-02-28T07:25:47;-0.60;99.90
39345;DHT22;25061;51.954;6.996;2023-02-28T07:28:14;-0.50;99.90
39345;DHT22;25061;51.954;6.996;2023-02-28T07:30:40;-0.30;99.90
39345;DHT22;25061;51.954;6.996;2023-02-28T07:33:05;-0.30;99.90
39345;DHT22;25061;51.954;6.996;2023-02-28T07:35:31;-0.40;99.90
39345;DHT22;25061;51.954;6.996;2023-02-28T07:38:00;-0.20;99.90
39345;DHT22;25061;51.954;6.996;2023-02-28T07:40:26;-0.10;99.90
39345;DHT22;25061;51.954;6.996;2023-02-28T07:42:52;0.10;99.90
39345;DHT22;25061;51.954;6.996;2023-02-28T07:45:18;0.30;99.90
39345;DHT22;25061;51.954;6.996;2023-02-28T07:47:44;0.30;99.90
39345;DHT22;25061;51.954;6.996;2023-02-28T07:50:12;0.70;99.90
39345;DHT22;25061;51.954;6.996;2023-02-28T07:52:38;0.70;99.90
39345;DHT22;25061;51.954;6.996;2023-02-28T07:55:05;1.00;99.90
39345;DHT22;25061;51.954;6.996;2023-02-28T07:57:31;1.10;99.90
39345;DHT22;25061;51.954;6.996;2023-02-28T07:59:57;1.10;99.90
39345;DHT22;25061;51.954;6.996;2023-02-28T08:02:27;1.20;99.90
39345;DHT22;25061;51.954;6.996;2023-02-28T08:04:52;1.20;99.90
39345;DHT22;25061;51.954;6.996;2023-02-28T08:07:18;1.30;99.90
39345;DHT22;25061;51.954;6.996;2023-02-28T08:09:44;1.70;99.90
39345;DHT22;25061;51.954;6.996;2023-02-28T08:12:11;1.30;99.90
39345;DHT22;25061;51.954;6.996;2023-02-28T08:14:37;1.40;99.90
39345;DHT22;25061;51.954;6.996;2023-02-28T08:17:03;1.80;99.90
39345;DHT22;25061;51.954;6.996;2023-02-28T08:19:29;1.90;99.90
39345;DHT22;25061;51.954;6.996;2023-02-28T08:21:56;2.10;99.90
39345;DHT22;25061;51.954;6.996;2023-02-28T08:24:21;1.90;99.90
39345;DHT22;25061;51.954;6.996;2023-02-28T08:26:47;2.30;99.90
39345;DHT22;25061;51.954;6.996;2023-02-28T08:29:13;2.20;99.90
39345;DHT22;25061;51.954;6.996;2023-02-28T08:31:39;2.10;99.90
39345;DHT22;25061;51.954;6.996;2023-02-28T08:34:06;2.50;99.90
39345;DHT22;25061;51.954;6.996;2023-02-28T08:36:33;2.50;99.90
39345;DHT22;25061;51.954;6.996;2023-02-28T08:38:59;3.00;99.90
39345;DHT22;25061;51.954;6.996;2023-02-28T08:41:25;3.40;99.90
39345;DHT22;25061;51.954;6.996;2023-02-28T08:43:51;3.40;99.90
39345;DHT22;25061;51.954;6.996;2023-02-28T08:46:16;3.50;99.90
39345;DHT22;25061;51.954;6.996;2023-02-28T08:48:42;3.70;99.90
39345;DHT22;25061;51.954;6.996;2023-02-28T08:51:11;3.70;99.90
39345;DHT22;25061;51.954;6.996;2023-02-28T08:53:38;3.90;99.90
39345;DHT22;25061;51.954;6.996;2023-02-28T08:56:09;3.80;99.90
39345;DHT22;25061;51.954;6.996;2023-02-28T08:58:35;4.10;99.90
39345;DHT22;25061;51.954;6.996;2023-02-28T09:01:13;4.20;99.90
39345;DHT22;25061;51.954;6.996;2023-02-28T09:03:39;4.10;99.90
39345;DHT22;25061;51.954;6.996;2023-02-28T09:06:06;3.70;99.90
39345;DHT22;25061;51.954;6.996;2023-02-28T09:08:32;3.80;99.90
39345;DHT22;25061;51.954;6.996;2023-02-28T09:10:58;4.00;99.90
39345;DHT22;25061;51.954;6.996;2023-02-28T09:13:25;4.00;99.90
39345;DHT22;25061;51.954;6.996;2023-02-28T09:15:52;3.70;99.90
39345;DHT22;25061;51.954;6.996;2023-02-28T09:18:18;3.80;99.90
39345;DHT22;25061;51.954;6.996;2023-02-28T09:20:43;3.80;99.90
39345;DHT22;25061;51.954;6.996;2023-02-28T09:23:11;4.10;99.90
39345;DHT22;25061;51.954;6.996;2023-02-28T09:25:38;3.70;99.90
39345;DHT22;25061;51.954;6.996;2023-02-28T09:28:10;3.80;99.10
39345;DHT22;25061;51.954;6.996;2023-02-28T09:30:36;4.10;99.10
39345;DHT22;25061;51.954;6.996;2023-02-28T09:33:02;4.00;99.30
39345;DHT22;25061;51.954;6.996;2023-02-28T09:35:28;4.20;99.90
39345;DHT22;25061;51.954;6.996;2023-02-28T09:37:55;4.40;99.90
39345;DHT22;25061;51.954;6.996;2023-02-28T09:40:24;4.40;99.90
39345;DHT22;25061;51.954;6.996;2023-02-28T09:42:52;4.70;99.90
39345;DHT22;25061;51.954;6.996;2023-02-28T09:45:31;4.30;98.30
39345;DHT22;25061;51.954;6.996;2023-02-28T09:48:03;4.40;98.50
39345;DHT22;25061;51.954;6.996;2023-02-28T09:50:35;4.00;97.30
39345;DHT22;25061;51.954;6.996;2023-02-28T09:55:48;4.30;97.40
39345;DHT22;25061;51.954;6.996;2023-02-28T09:58:40;4.10;97.00
39345;DHT22;25061;51.954;6.996;2023-02-28T10:01:43;4.40;96.90
39345;DHT22;25061;51.954;6.996;2023-02-28T10:07:36;4.70;98.20
39345;DHT22;25061;51.954;6.996;2023-02-28T10:10:38;4.90;97.60
39345;DHT22;25061;51.954;6.996;2023-02-28T10:13:12;4.60;98.00
39345;DHT22;25061;51.954;6.996;2023-02-28T10:15:38;4.40;96.90
39345;DHT22;25061;51.954;6.996;2023-02-28T10:18:08;4.40;96.50
39345;DHT22;25061;51.954;6.996;2023-02-28T10:20:39;4.70;97.30
39345;DHT22;25061;51.954;6.996;2023-02-28T10:23:34;4.90;96.40
39345;DHT22;25061;51.954;6.996;2023-02-28T10:26:14;4.30;95.60
39345;DHT22;25061;51.954;6.996;2023-02-28T10:28:44;4.30;95.20
39345;DHT22;25061;51.954;6.996;2023-02-28T10:31:18;4.50;97.40
39345;DHT22;25061;51.954;6.996;2023-02-28T10:33:45;4.60;96.70
39345;DHT22;25061;51.954;6.996;2023-02-28T10:36:14;4.70;97.60
39345;DHT22;25061;51.954;6.996;2023-02-28T10:38:42;4.80;95.90
39345;DHT22;25061;51.954;6.996;2023-02-28T10:41:10;4.90;95.80
39345;DHT22;25061;51.954;6.996;2023-02-28T10:43:37;4.90;96.00
39345;DHT22;25061;51.954;6.996;2023-02-28T10:48:41;4.60;95.80
39345;DHT22;25061;51.954;6.996;2023-02-28T10:51:11;5.00;96.70
39345;DHT22;25061;51.954;6.996;2023-02-28T11:01:20;5.00;95.60
39345;DHT22;25061;51.954;6.996;2023-02-28T11:03:47;5.00;95.70
39345;DHT22;25061;51.954;6.996;2023-02-28T11:06:22;5.20;95.10
39345;DHT22;25061;51.954;6.996;2023-02-28T11:08:56;5.10;95.90
39345;DHT22;25061;51.954;6.996;2023-02-28T11:11:25;5.10;95.70
39345;DHT22;25061;51.954;6.996;2023-02-28T11:14:04;4.70;95.80
39345;DHT22;25061;51.954;6.996;2023-02-28T11:16:33;5.00;95.60
39345;DHT22;25061;51.954;6.996;2023-02-28T11:19:00;5.30;95.60
39345;DHT22;25061;51.954;6.996;2023-02-28T11:21:32;4.90;95.40
39345;DHT22;25061;51.954;6.996;2023-02-28T11:24:07;5.00;95.90
39345;DHT22;25061;51.954;6.996;2023-02-28T11:26:43;5.20;96.80
39345;DHT22;25061;51.954;6.996;2023-02-28T11:29:23;5.10;95.90
39345;DHT22;25061;51.954;6.996;2023-02-28T11:34:38;5.40;95.50
39345;DHT22;25061;51.954;6.996;2023-02-28T11:37:11;5.70;97.30
39345;DHT22;25061;51.954;6.996;2023-02-28T11:39:37;5.80;96.50
39345;DHT22;25061;51.954;6.996;2023-02-28T11:52:53;5.30;96.00
39345;DHT22;25061;51.954;6.996;2023-02-28T12:06:13;5.30;95.50
39345;DHT22;25061;51.954;6.996;2023-02-28T12:11:51;5.70;96.30
39345;DHT22;25061;51.954;6.996;2023-02-28T12:17:08;5.80;95.90
39345;DHT22;25061;51.954;6.996;2023-02-28T12:19:53;5.70;94.70
39345;DHT22;25061;51.954;6.996;2023-02-28T12:22:34;5.50;94.50
39345;DHT22;25061;51.954;6.996;2023-02-28T12:27:36;5.60;95.00
39345;DHT22;25061;51.954;6.996;2023-02-28T12:30:24;5.70;95.10
39345;DHT22;25061;51.954;6.996;2023-02-28T12:33:05;5.50;95.10
39345;DHT22;25061;51.954;6.996;2023-02-28T12:35:36;5.90;96.90
39345;DHT22;25061;51.954;6.996;2023-02-28T12:38:13;5.70;95.10
39345;DHT22;25061;51.954;6.996;2023-02-28T12:43:21;5.80;95.70
39345;DHT22;25061;51.954;6.996;2023-02-28T12:45:58;5.80;95.00
39345;DHT22;25061;51.954;6.996;2023-02-28T12:50:55;5.50;96.10
39345;DHT22;25061;51.954;6.996;2023-02-28T12:53:31;5.60;95.70
39345;DHT22;25061;51.954;6.996;2023-02-28T12:56:08;5.60;95.20
39345;DHT22;25061;51.954;6.996;2023-02-28T12:58:48;5.50;95.20
39345;DHT22;25061;51.954;6.996;2023-02-28T13:04:51;6.00;95.40
39345;DHT22;25061;51.954;6.996;2023-02-28T13:07:30;5.90;95.20
39345;DHT22;25061;51.954;6.996;2023-02-28T13:10:00;6.00;94.50
39345;DHT22;25061;51.954;6.996;2023-02-28T13:12:27;5.80;94.60
39345;DHT22;25061;51.954;6.996;2023-02-28T13:17:32;6.10;94.90
39345;DHT22;25061;51.954;6.996;2023-02-28T13:19:59;6.10;94.70
39345;DHT22;25061;51.954;6.996;2023-02-28T13:24:56;5.80;95.60
39345;DHT22;25061;51.954;6.996;2023-02-28T13:27:34;5.80;95.60
39345;DHT22;25061;51.954;6.996;2023-02-28T13:30:00;6.00;96.40
39345;DHT22;25061;51.954;6.996;2023-02-28T13:32:34;6.10;95.10
39345;DHT22;25061;51.954;6.996;2023-02-28T13:39:57;6.20;95.40
39345;DHT22;25061;51.954;6.996;2023-02-28T13:50:21;6.60;95.90
39345;DHT22;25061;51.954;6.996;2023-02-28T13:56:16;6.10;95.10
39345;DHT22;25061;51.954;6.996;2023-02-28T13:58:50;6.10;95.40
39345;DHT22;25061;51.954;6.996;2023-02-28T14:04:19;6.40;95.40
39345;DHT22;25061;51.954;6.996;2023-02-28T14:06:54;6.30;95.20
39345;DHT22;25061;51.954;6.996;2023-02-28T14:11:57;6.20;94.80
39345;DHT22;25061;51.954;6.996;2023-02-28T14:17:03;6.00;95.20
39345;DHT22;25061;51.954;6.996;2023-02-28T14:19:31;6.00;95.80
39345;DHT22;25061;51.954;6.996;2023-02-28T14:22:16;6.20;95.40
39345;DHT22;25061;51.954;6.996;2023-02-28T14:25:18;6.20;95.10
39345;DHT22;25061;51.954;6.996;2023-02-28T14:30:52;6.20;96.00
39345;DHT22;25061;51.954;6.996;2023-02-28T14:33:31;6.10;95.60
39345;DHT22;25061;51.954;6.996;2023-02-28T14:36:22;6.50;95.50
39345;DHT22;25061;51.954;6.996;2023-02-28T14:38:56;6.50;96.60
39345;DHT22;25061;51.954;6.996;2023-02-28T14:41:29;6.60;96.70
39345;DHT22;25061;51.954;6.996;2023-02-28T14:43:59;6.40;95.40
39345;DHT22;25061;51.954;6.996;2023-02-28T14:46:31;6.30;95.80
39345;DHT22;25061;51.954;6.996;2023-02-28T14:48:58;6.40;95.50
39345;DHT22;25061;51.954;6.996;2023-02-28T14:51:24;6.20;95.10
39345;DHT22;25061;51.954;6.996;2023-02-28T14:53:56;6.20;95.30
39345;DHT22;25061;51.954;6.996;2023-02-28T14:56:26;6.10;95.40
39345;DHT22;25061;51.954;6.996;2023-02-28T14:58:54;6.10;95.50
39345;DHT22;25061;51.954;6.996;2023-02-28T15:01:22;6.20;95.40
39345;DHT22;25061;51.954;6.996;2023-02-28T15:03:57;6.20;95.80
39345;DHT22;25061;51.954;6.996;2023-02-28T15:06:23;6.20;95.60
39345;DHT22;25061;51.954;6.996;2023-02-28T15:09:07;6.10;95.70
39345;DHT22;25061;51.954;6.996;2023-02-28T15:11:33;6.00;95.40
39345;DHT22;25061;51.954;6.996;2023-02-28T15:14:00;6.00;95.90
39345;DHT22;25061;51.954;6.996;2023-02-28T15:16:32;5.90;96.00
39345;DHT22;25061;51.954;6.996;2023-02-28T15:19:20;6.00;95.90
39345;DHT22;25061;51.954;6.996;2023-02-28T15:21:49;6.00;96.10
39345;DHT22;25061;51.954;6.996;2023-02-28T15:24:19;6.10;96.50
39345;DHT22;25061;51.954;6.996;2023-02-28T15:27:07;5.90;96.40
39345;DHT22;25061;51.954;6.996;2023-02-28T15:29:48;5.90;95.80
39345;DHT22;25061;51.954;6.996;2023-02-28T15:32:36;5.90;96.30
39345;DHT22;25061;51.954;6.996;2023-02-28T15:35:28;5.90;96.10
39345;DHT22;25061;51.954;6.996;2023-02-28T15:40:26;5.90;97.00
39345;DHT22;25061;51.954;6.996;2023-02-28T15:43:00;5.90;97.20
39345;DHT22;25061;51.954;6.996;2023-02-28T15:45:52;5.70;96.60
39345;DHT22;25061;51.954;6.996;2023-02-28T15:53:41;5.40;97.20
39345;DHT22;25061;51.954;6.996;2023-02-28T15:56:22;5.40;97.40
39345;DHT22;25061;51.954;6.996;2023-02-28T15:58:48;5.40;97.70
39345;DHT22;25061;51.954;6.996;2023-02-28T16:01:25;5.40;97.70
39345;DHT22;25061;51.954;6.996;2023-02-28T16:03:53;5.40;98.00
39345;DHT22;25061;51.954;6.996;2023-02-28T16:06:26;5.30;97.60
39345;DHT22;25061;51.954;6.996;2023-02-28T16:08:54;5.20;98.10
39345;DHT22;25061;51.954;6.996;2023-02-28T16:11:21;5.20;98.00
39345;DHT22;25061;51.954;6.996;2023-02-28T16:13:47;5.20;98.40
39345;DHT22;25061;51.954;6.996;2023-02-28T16:16:19;5.10;98.10
39345;DHT22;25061;51.954;6.996;2023-02-28T16:18:45;5.10;98.20
39345;DHT22;25061;51.954;6.996;2023-02-28T16:21:12;5.00;98.30
39345;DHT22;25061;51.954;6.996;2023-02-28T16:23:37;4.90;98.60
39345;DHT22;25061;51.954;6.996;2023-02-28T16:26:04;4.90;98.60
39345;DHT22;25061;51.954;6.996;2023-02-28T16:28:32;4.90;98.90
39345;DHT22;25061;51.954;6.996;2023-02-28T16:31:00;4.80;98.70
39345;DHT22;25061;51.954;6.996;2023-02-28T16:33:28;4.70;99.40
39345;DHT22;25061;51.954;6.996;2023-02-28T16:35:54;4.70;99.70
39345;DHT22;25061;51.954;6.996;2023-02-28T16:38:19;4.70;99.50
39345;DHT22;25061;51.954;6.996;2023-02-28T16:40:46;4.60;99.60
39345;DHT22;25061;51.954;6.996;2023-02-28T16:43:19;4.60;99.90
39345;DHT22;25061;51.954;6.996;2023-02-28T16:45:47;4.50;99.90
39345;DHT22;25061;51.954;6.996;2023-02-28T16:48:15;4.40;99.90
39345;DHT22;25061;51.954;6.996;2023-02-28T16:50:43;4.40;99.90
39345;DHT22;25061;51.954;6.996;2023-02-28T16:53:10;4.30;99.90
39345;DHT22;25061;51.954;6.996;2023-02-28T16:55:36;4.30;99.90
39345;DHT22;25061;51.954;6.996;2023-02-28T16:58:02;4.30;99.90
39345;DHT22;25061;51.954;6.996;2023-02-28T17:00:30;4.20;99.90
39345;DHT22;25061;51.954;6.996;2023-02-28T17:02:57;4.10;99.90
39345;DHT22;25061;51.954;6.996;2023-02-28T17:05:24;4.10;99.90
39345;DHT22;25061;51.954;6.996;2023-02-28T17:07:51;4.00;99.90
39345;DHT22;25061;51.954;6.996;2023-02-28T17:10:22;4.00;99.90
39345;DHT22;25061;51.954;6.996;2023-02-28T17:12:48;4.00;99.90
39345;DHT22;25061;51.954;6.996;2023-02-28T17:15:15;3.90;99.90
39345;DHT22;25061;51.954;6.996;2023-02-28T17:17:42;3.80;99.90
39345;DHT22;25061;51.954;6.996;2023-02-28T17:20:19;3.70;99.90
39345;DHT22;25061;51.954;6.996;2023-02-28T17:22:48;3.70;99.90
39345;DHT22;25061;51.954;6.996;2023-02-28T17:25:13;3.70;99.90
39345;DHT22;25061;51.954;6.996;2023-02-28T17:27:39;3.60;99.90
39345;DHT22;25061;51.954;6.996;2023-02-28T17:30:25;3.50;99.90
39345;DHT22;25061;51.954;6.996;2023-02-28T17:32:55;3.50;99.90
39345;DHT22;25061;51.954;6.996;2023-02-28T17:35:21;3.50;99.90
39345;DHT22;25061;51.954;6.996;2023-02-28T17:37:46;3.40;99.90
39345;DHT22;25061;51.954;6.996;2023-02-28T17:40:14;3.30;99.90
39345;DHT22;25061;51.954;6.996;2023-02-28T17:42:40;3.30;99.90
39345;DHT22;25061;51.954;6.996;2023-02-28T17:45:06;3.20;99.90
39345;DHT22;25061;51.954;6.996;2023-02-28T17:47:32;3.20;99.90
39345;DHT22;25061;51.954;6.996;2023-02-28T17:49:57;3.20;99.90
39345;DHT22;25061;51.954;6.996;2023-02-28T17:52:23;3.10;99.90
39345;DHT22;25061;51.954;6.996;2023-02-28T17:54:49;3.00;99.90